Terminal Aerodrome Forecast
Issued by NWS

Home | Current Version | Previous Version | Text Only | Print | Product List | Glossary On
Versions: 1 2 3 4 5 6 7 8 9 10 11 12
000
FTUS44 KTSA 032300
TAFFYV
TAF
KFYV 032320Z 0400/0424 14009KT P6SM SCT180 BKN250
     FM040100 18004KT P6SM SCT250
     FM041400 20012G20KT P6SM BKN250=

USA.gov is the U.S. government's official web portal to all federal, state and local government web resources and services.